Terminal Aerodrome Forecast
Issued by NWS Portland, OR

Home | Current Version | Previous Version | Text Only | Print | Product List | Glossary On
Versions: 1 2 3 4 5 6 7 8 9 10 11 12 13 14 15 16 17 18 19 20 21 22 23 24 25 26 27 28 29 30 31 32 33 34 35 36
000
FTUS46 KPQR 291728
TAFHIO
TAF
KHIO 291728Z 2918/3018 18012G20KT 4SM -SHRA BR BKN015 BKN025 OVC040
     FM292200 19012KT P6SM -SHRA SCT015 BKN025 OVC040
     FM300300 25010KT P6SM -SHRA SCT025 OVC050=

USA.gov is the U.S. government's official web portal to all federal, state and local government web resources and services.